sensor_id;sensor_type;location;lat;lon;timestamp;temperature;humidity
8595;DHT22;4335;48.860;9.198;2024-03-22T00:01:18;10.50;99.90
8595;DHT22;4335;48.860;9.198;2024-03-22T00:03:54;10.50;99.90
8595;DHT22;4335;48.860;9.198;2024-03-22T00:06:22;10.40;99.90
8595;DHT22;4335;48.860;9.198;2024-03-22T00:08:48;10.40;99.90
8595;DHT22;4335;48.860;9.198;2024-03-22T00:11:25;10.30;99.90
8595;DHT22;4335;48.860;9.198;2024-03-22T00:13:51;10.30;99.90
8595;DHT22;4335;48.860;9.198;2024-03-22T00:16:19;10.30;99.90
8595;DHT22;4335;48.860;9.198;2024-03-22T00:18:54;10.20;99.90
8595;DHT22;4335;48.860;9.198;2024-03-22T00:21:22;10.10;99.90
8595;DHT22;4335;48.860;9.198;2024-03-22T00:23:52;10.10;99.90
8595;DHT22;4335;48.860;9.198;2024-03-22T00:26:22;10.10;99.90
8595;DHT22;4335;48.860;9.198;2024-03-22T00:28:53;10.10;99.90
8595;DHT22;4335;48.860;9.198;2024-03-22T00:31:20;10.10;99.90
8595;DHT22;4335;48.860;9.198;2024-03-22T00:33:46;10.00;99.90
8595;DHT22;4335;48.860;9.198;2024-03-22T00:36:14;10.00;99.90
8595;DHT22;4335;48.860;9.198;2024-03-22T00:38:40;10.00;99.90
8595;DHT22;4335;48.860;9.198;2024-03-22T00:41:08;10.00;99.90
8595;DHT22;4335;48.860;9.198;2024-03-22T00:43:40;9.90;99.90
8595;DHT22;4335;48.860;9.198;2024-03-22T00:46:11;9.90;99.90
8595;DHT22;4335;48.860;9.198;2024-03-22T00:48:41;9.90;99.90
8595;DHT22;4335;48.860;9.198;2024-03-22T00:51:11;9.80;99.90
8595;DHT22;4335;48.860;9.198;2024-03-22T00:53:37;9.80;99.90
8595;DHT22;4335;48.860;9.198;2024-03-22T00:56:05;9.80;99.90
8595;DHT22;4335;48.860;9.198;2024-03-22T00:58:31;9.80;99.90
8595;DHT22;4335;48.860;9.198;2024-03-22T01:00:59;9.70;99.90
8595;DHT22;4335;48.860;9.198;2024-03-22T01:03:33;9.70;99.90
8595;DHT22;4335;48.860;9.198;2024-03-22T01:06:01;9.70;99.90
8595;DHT22;4335;48.860;9.198;2024-03-22T01:08:31;9.70;99.90
8595;DHT22;4335;48.860;9.198;2024-03-22T01:11:01;9.60;99.90
8595;DHT22;4335;48.860;9.198;2024-03-22T01:13:28;9.60;99.90
8595;DHT22;4335;48.860;9.198;2024-03-22T01:15:55;9.60;99.90
8595;DHT22;4335;48.860;9.198;2024-03-22T01:18:22;9.60;99.90
8595;DHT22;4335;48.860;9.198;2024-03-22T01:20:53;9.60;99.90
8595;DHT22;4335;48.860;9.198;2024-03-22T01:23:23;9.50;99.90
8595;DHT22;4335;48.860;9.198;2024-03-22T01:25:50;9.50;99.90
8595;DHT22;4335;48.860;9.198;2024-03-22T01:28:22;9.50;99.90
8595;DHT22;4335;48.860;9.198;2024-03-22T01:30:52;9.40;99.90
8595;DHT22;4335;48.860;9.198;2024-03-22T01:33:21;9.40;99.90
8595;DHT22;4335;48.860;9.198;2024-03-22T01:35:55;9.40;99.90
8595;DHT22;4335;48.860;9.198;2024-03-22T01:38:25;9.30;99.90
8595;DHT22;4335;48.860;9.198;2024-03-22T01:41:01;9.30;99.90
8595;DHT22;4335;48.860;9.198;2024-03-22T01:43:28;9.30;99.90
8595;DHT22;4335;48.860;9.198;2024-03-22T01:45:55;9.20;99.90
8595;DHT22;4335;48.860;9.198;2024-03-22T01:48:21;9.20;99.90
8595;DHT22;4335;48.860;9.198;2024-03-22T01:50:48;9.10;99.90
8595;DHT22;4335;48.860;9.198;2024-03-22T01:53:17;9.10;99.90
8595;DHT22;4335;48.860;9.198;2024-03-22T01:55:44;9.00;99.90
8595;DHT22;4335;48.860;9.198;2024-03-22T01:58:11;9.00;99.90
8595;DHT22;4335;48.860;9.198;2024-03-22T02:00:39;9.00;99.90
8595;DHT22;4335;48.860;9.198;2024-03-22T02:03:05;9.00;99.90
8595;DHT22;4335;48.860;9.198;2024-03-22T02:05:38;9.00;99.90
8595;DHT22;4335;48.860;9.198;2024-03-22T02:08:05;8.90;99.90
8595;DHT22;4335;48.860;9.198;2024-03-22T02:10:37;8.90;99.90
8595;DHT22;4335;48.860;9.198;2024-03-22T02:13:06;8.90;99.90
8595;DHT22;4335;48.860;9.198;2024-03-22T02:15:34;8.80;99.90
8595;DHT22;4335;48.860;9.198;2024-03-22T02:18:06;8.70;99.90
8595;DHT22;4335;48.860;9.198;2024-03-22T02:20:33;8.70;99.90
8595;DHT22;4335;48.860;9.198;2024-03-22T02:23:03;8.60;99.90
8595;DHT22;4335;48.860;9.198;2024-03-22T02:25:32;8.60;99.90
8595;DHT22;4335;48.860;9.198;2024-03-22T02:28:01;8.60;99.90
8595;DHT22;4335;48.860;9.198;2024-03-22T02:30:28;8.50;99.90
8595;DHT22;4335;48.860;9.198;2024-03-22T02:33:00;8.50;99.90
8595;DHT22;4335;48.860;9.198;2024-03-22T02:35:34;8.40;99.90
8595;DHT22;4335;48.860;9.198;2024-03-22T02:38:00;8.40;99.90
8595;DHT22;4335;48.860;9.198;2024-03-22T02:40:28;8.30;99.90
8595;DHT22;4335;48.860;9.198;2024-03-22T02:42:55;8.40;99.90
8595;DHT22;4335;48.860;9.198;2024-03-22T02:45:23;8.30;99.90
8595;DHT22;4335;48.860;9.198;2024-03-22T02:47:49;8.30;99.90
8595;DHT22;4335;48.860;9.198;2024-03-22T02:50:19;8.30;99.90
8595;DHT22;4335;48.860;9.198;2024-03-22T02:52:45;8.30;99.90
8595;DHT22;4335;48.860;9.198;2024-03-22T02:55:16;8.30;99.90
8595;DHT22;4335;48.860;9.198;2024-03-22T02:57:49;8.20;99.90
8595;DHT22;4335;48.860;9.198;2024-03-22T03:00:18;8.20;99.90
8595;DHT22;4335;48.860;9.198;2024-03-22T03:02:45;8.30;99.90
8595;DHT22;4335;48.860;9.198;2024-03-22T03:05:16;8.20;99.90
8595;DHT22;4335;48.860;9.198;2024-03-22T03:07:45;8.20;99.90
8595;DHT22;4335;48.860;9.198;2024-03-22T03:10:13;8.20;99.90
8595;DHT22;4335;48.860;9.198;2024-03-22T03:12:40;8.20;99.90
8595;DHT22;4335;48.860;9.198;2024-03-22T03:15:13;8.30;99.90
8595;DHT22;4335;48.860;9.198;2024-03-22T03:17:44;8.20;99.90
8595;DHT22;4335;48.860;9.198;2024-03-22T03:20:12;8.30;99.90
8595;DHT22;4335;48.860;9.198;2024-03-22T03:22:39;8.30;99.90
8595;DHT22;4335;48.860;9.198;2024-03-22T03:25:09;8.20;99.90
8595;DHT22;4335;48.860;9.198;2024-03-22T03:27:38;8.30;99.90
8595;DHT22;4335;48.860;9.198;2024-03-22T03:30:06;8.30;99.90
8595;DHT22;4335;48.860;9.198;2024-03-22T03:32:33;8.20;99.90
8595;DHT22;4335;48.860;9.198;2024-03-22T03:35:05;8.20;99.90
8595;DHT22;4335;48.860;9.198;2024-03-22T03:37:31;8.20;99.90
8595;DHT22;4335;48.860;9.198;2024-03-22T03:39:59;8.20;99.90
8595;DHT22;4335;48.860;9.198;2024-03-22T03:42:31;8.30;99.90
8595;DHT22;4335;48.860;9.198;2024-03-22T03:45:02;8.30;99.90
8595;DHT22;4335;48.860;9.198;2024-03-22T03:47:31;8.30;99.90
8595;DHT22;4335;48.860;9.198;2024-03-22T03:50:07;8.30;99.90
8595;DHT22;4335;48.860;9.198;2024-03-22T03:52:37;8.30;99.90
8595;DHT22;4335;48.860;9.198;2024-03-22T03:55:05;8.30;99.90
8595;DHT22;4335;48.860;9.198;2024-03-22T03:57:34;8.30;99.90
8595;DHT22;4335;48.860;9.198;2024-03-22T04:00:00;8.20;99.90
8595;DHT22;4335;48.860;9.198;2024-03-22T04:02:28;8.30;99.90
8595;DHT22;4335;48.860;9.198;2024-03-22T04:04:54;8.20;99.90
8595;DHT22;4335;48.860;9.198;2024-03-22T04:07:26;8.20;99.90
8595;DHT22;4335;48.860;9.198;2024-03-22T04:09:55;8.20;99.90
8595;DHT22;4335;48.860;9.198;2024-03-22T04:12:23;8.20;99.90
8595;DHT22;4335;48.860;9.198;2024-03-22T04:14:49;8.20;99.90
8595;DHT22;4335;48.860;9.198;2024-03-22T04:17:19;8.20;99.90
8595;DHT22;4335;48.860;9.198;2024-03-22T04:19:45;8.20;99.90
8595;DHT22;4335;48.860;9.198;2024-03-22T04:22:13;8.30;99.90
8595;DHT22;4335;48.860;9.198;2024-03-22T04:24:40;8.20;99.90
8595;DHT22;4335;48.860;9.198;2024-03-22T04:27:14;8.20;99.90
8595;DHT22;4335;48.860;9.198;2024-03-22T04:29:40;8.20;99.90
8595;DHT22;4335;48.860;9.198;2024-03-22T04:32:07;8.20;99.90
8595;DHT22;4335;48.860;9.198;2024-03-22T04:34:37;8.20;99.90
8595;DHT22;4335;48.860;9.198;2024-03-22T04:37:08;8.20;99.90
8595;DHT22;4335;48.860;9.198;2024-03-22T04:39:37;8.20;99.90
8595;DHT22;4335;48.860;9.198;2024-03-22T04:42:09;8.30;99.90
8595;DHT22;4335;48.860;9.198;2024-03-22T04:44:39;8.30;99.90
8595;DHT22;4335;48.860;9.198;2024-03-22T04:47:16;8.30;99.90
8595;DHT22;4335;48.860;9.198;2024-03-22T04:49:53;8.40;99.90
8595;DHT22;4335;48.860;9.198;2024-03-22T04:52:19;8.40;99.90
8595;DHT22;4335;48.860;9.198;2024-03-22T04:54:50;8.40;99.90
8595;DHT22;4335;48.860;9.198;2024-03-22T04:57:17;8.40;99.90
8595;DHT22;4335;48.860;9.198;2024-03-22T04:59:48;8.50;99.90
8595;DHT22;4335;48.860;9.198;2024-03-22T05:02:14;8.50;99.90
8595;DHT22;4335;48.860;9.198;2024-03-22T05:04:49;8.50;99.90
8595;DHT22;4335;48.860;9.198;2024-03-22T05:07:18;8.50;99.90
8595;DHT22;4335;48.860;9.198;2024-03-22T05:09:52;8.50;99.90
8595;DHT22;4335;48.860;9.198;2024-03-22T05:12:20;8.40;99.90
8595;DHT22;4335;48.860;9.198;2024-03-22T05:14:51;8.50;99.90
8595;DHT22;4335;48.860;9.198;2024-03-22T05:17:21;8.40;99.90
8595;DHT22;4335;48.860;9.198;2024-03-22T05:19:54;8.40;99.90
8595;DHT22;4335;48.860;9.198;2024-03-22T05:22:28;8.40;99.90
8595;DHT22;4335;48.860;9.198;2024-03-22T05:24:59;8.40;99.90
8595;DHT22;4335;48.860;9.198;2024-03-22T05:27:33;8.40;99.90
8595;DHT22;4335;48.860;9.198;2024-03-22T05:30:04;8.40;99.90
8595;DHT22;4335;48.860;9.198;2024-03-22T05:32:34;8.50;99.90
8595;DHT22;4335;48.860;9.198;2024-03-22T05:35:05;8.50;99.90
8595;DHT22;4335;48.860;9.198;2024-03-22T05:37:32;8.50;99.90
8595;DHT22;4335;48.860;9.198;2024-03-22T05:40:03;8.60;99.90
8595;DHT22;4335;48.860;9.198;2024-03-22T05:42:32;8.70;99.90
8595;DHT22;4335;48.860;9.198;2024-03-22T05:44:59;8.70;99.90
8595;DHT22;4335;48.860;9.198;2024-03-22T05:47:28;8.90;99.90
8595;DHT22;4335;48.860;9.198;2024-03-22T05:49:57;9.10;99.90
8595;DHT22;4335;48.860;9.198;2024-03-22T05:52:29;9.40;99.90
8595;DHT22;4335;48.860;9.198;2024-03-22T05:54:57;9.60;99.90
8595;DHT22;4335;48.860;9.198;2024-03-22T05:57:23;9.60;99.90
8595;DHT22;4335;48.860;9.198;2024-03-22T05:59:55;9.70;99.90
8595;DHT22;4335;48.860;9.198;2024-03-22T06:02:29;9.70;99.90
8595;DHT22;4335;48.860;9.198;2024-03-22T06:04:56;9.80;99.90
8595;DHT22;4335;48.860;9.198;2024-03-22T06:07:22;9.80;99.90
8595;DHT22;4335;48.860;9.198;2024-03-22T06:09:49;9.90;99.90
8595;DHT22;4335;48.860;9.198;2024-03-22T06:12:16;9.90;99.90
8595;DHT22;4335;48.860;9.198;2024-03-22T06:14:43;10.10;99.90
8595;DHT22;4335;48.860;9.198;2024-03-22T06:17:15;10.20;99.90
8595;DHT22;4335;48.860;9.198;2024-03-22T06:19:48;10.30;99.90
8595;DHT22;4335;48.860;9.198;2024-03-22T06:22:17;10.40;99.90
8595;DHT22;4335;48.860;9.198;2024-03-22T06:24:51;10.80;99.90
8595;DHT22;4335;48.860;9.198;2024-03-22T06:27:17;11.20;99.90
8595;DHT22;4335;48.860;9.198;2024-03-22T06:29:51;11.70;99.90
8595;DHT22;4335;48.860;9.198;2024-03-22T06:32:22;12.40;99.90
8595;DHT22;4335;48.860;9.198;2024-03-22T06:34:49;13.20;99.90
8595;DHT22;4335;48.860;9.198;2024-03-22T06:37:18;14.20;99.90
8595;DHT22;4335;48.860;9.198;2024-03-22T06:39:46;15.10;99.90
8595;DHT22;4335;48.860;9.198;2024-03-22T06:42:12;15.90;99.90
8595;DHT22;4335;48.860;9.198;2024-03-22T06:44:40;16.70;99.90
8595;DHT22;4335;48.860;9.198;2024-03-22T06:47:06;17.60;99.90
8595;DHT22;4335;48.860;9.198;2024-03-22T06:49:38;18.40;99.90
8595;DHT22;4335;48.860;9.198;2024-03-22T06:52:10;19.00;99.90
8595;DHT22;4335;48.860;9.198;2024-03-22T06:54:37;19.60;99.90
8595;DHT22;4335;48.860;9.198;2024-03-22T06:57:07;19.60;99.90
8595;DHT22;4335;48.860;9.198;2024-03-22T06:59:34;19.00;99.90
8595;DHT22;4335;48.860;9.198;2024-03-22T07:02:05;18.30;99.90
8595;DHT22;4335;48.860;9.198;2024-03-22T07:04:39;17.60;99.90
8595;DHT22;4335;48.860;9.198;2024-03-22T07:07:11;16.90;99.90
8595;DHT22;4335;48.860;9.198;2024-03-22T07:09:38;16.30;99.90
8595;DHT22;4335;48.860;9.198;2024-03-22T07:12:11;15.70;99.90
8595;DHT22;4335;48.860;9.198;2024-03-22T07:14:38;15.30;99.90
8595;DHT22;4335;48.860;9.198;2024-03-22T07:17:04;14.90;99.90
8595;DHT22;4335;48.860;9.198;2024-03-22T07:19:32;14.60;99.90
8595;DHT22;4335;48.860;9.198;2024-03-22T07:22:04;14.30;99.90
8595;DHT22;4335;48.860;9.198;2024-03-22T07:24:35;14.10;99.90
8595;DHT22;4335;48.860;9.198;2024-03-22T07:27:08;13.90;99.90
8595;DHT22;4335;48.860;9.198;2024-03-22T07:29:38;13.80;99.90
8595;DHT22;4335;48.860;9.198;2024-03-22T07:32:07;13.70;99.90
8595;DHT22;4335;48.860;9.198;2024-03-22T07:34:41;13.50;99.90
8595;DHT22;4335;48.860;9.198;2024-03-22T07:37:09;13.40;99.90
8595;DHT22;4335;48.860;9.198;2024-03-22T07:39:36;13.40;99.90
8595;DHT22;4335;48.860;9.198;2024-03-22T07:42:03;13.40;99.90
8595;DHT22;4335;48.860;9.198;2024-03-22T07:44:33;13.40;99.90
8595;DHT22;4335;48.860;9.198;2024-03-22T07:47:08;13.50;99.90
8595;DHT22;4335;48.860;9.198;2024-03-22T07:49:36;13.40;99.90
8595;DHT22;4335;48.860;9.198;2024-03-22T07:52:03;13.40;99.90
8595;DHT22;4335;48.860;9.198;2024-03-22T07:54:34;13.40;99.90
8595;DHT22;4335;48.860;9.198;2024-03-22T07:57:01;13.30;99.90
8595;DHT22;4335;48.860;9.198;2024-03-22T07:59:37;13.30;99.90
8595;DHT22;4335;48.860;9.198;2024-03-22T08:02:04;13.30;99.90
8595;DHT22;4335;48.860;9.198;2024-03-22T08:04:31;13.30;99.90
8595;DHT22;4335;48.860;9.198;2024-03-22T08:06:57;13.20;99.90
8595;DHT22;4335;48.860;9.198;2024-03-22T08:09:25;13.20;99.90
8595;DHT22;4335;48.860;9.198;2024-03-22T08:11:52;13.20;99.90
8595;DHT22;4335;48.860;9.198;2024-03-22T08:14:20;13.30;99.90
8595;DHT22;4335;48.860;9.198;2024-03-22T08:16:52;13.30;99.90
8595;DHT22;4335;48.860;9.198;2024-03-22T08:19:19;13.40;99.90
8595;DHT22;4335;48.860;9.198;2024-03-22T08:21:45;13.60;99.90
8595;DHT22;4335;48.860;9.198;2024-03-22T08:24:13;13.80;99.90
8595;DHT22;4335;48.860;9.198;2024-03-22T08:26:39;13.90;99.90
8595;DHT22;4335;48.860;9.198;2024-03-22T08:29:08;14.20;99.90
8595;DHT22;4335;48.860;9.198;2024-03-22T08:31:35;14.50;99.90
8595;DHT22;4335;48.860;9.198;2024-03-22T08:34:02;14.90;99.90
8595;DHT22;4335;48.860;9.198;2024-03-22T08:36:31;15.20;99.90
8595;DHT22;4335;48.860;9.198;2024-03-22T08:38:58;15.50;99.90
8595;DHT22;4335;48.860;9.198;2024-03-22T08:41:25;15.90;99.90
8595;DHT22;4335;48.860;9.198;2024-03-22T08:43:55;16.30;99.90
8595;DHT22;4335;48.860;9.198;2024-03-22T08:46:25;16.50;99.90
8595;DHT22;4335;48.860;9.198;2024-03-22T08:48:56;16.70;99.90
8595;DHT22;4335;48.860;9.198;2024-03-22T08:51:25;16.90;99.90
8595;DHT22;4335;48.860;9.198;2024-03-22T08:53:55;17.10;99.90
8595;DHT22;4335;48.860;9.198;2024-03-22T08:56:22;17.20;99.90
8595;DHT22;4335;48.860;9.198;2024-03-22T08:58:55;17.30;99.90
8595;DHT22;4335;48.860;9.198;2024-03-22T09:01:22;17.40;99.90
8595;DHT22;4335;48.860;9.198;2024-03-22T09:03:51;17.40;99.90
8595;DHT22;4335;48.860;9.198;2024-03-22T09:06:20;17.50;99.90
8595;DHT22;4335;48.860;9.198;2024-03-22T09:08:48;17.60;99.90
8595;DHT22;4335;48.860;9.198;2024-03-22T09:11:14;17.70;99.90
8595;DHT22;4335;48.860;9.198;2024-03-22T09:13:47;17.70;99.90
8595;DHT22;4335;48.860;9.198;2024-03-22T09:16:18;17.80;99.90
8595;DHT22;4335;48.860;9.198;2024-03-22T09:18:46;17.90;99.90
8595;DHT22;4335;48.860;9.198;2024-03-22T09:21:13;17.90;99.90
8595;DHT22;4335;48.860;9.198;2024-03-22T09:23:41;18.00;99.90
8595;DHT22;4335;48.860;9.198;2024-03-22T09:26:07;18.20;99.90
8595;DHT22;4335;48.860;9.198;2024-03-22T09:28:38;18.50;99.90
8595;DHT22;4335;48.860;9.198;2024-03-22T09:31:04;18.80;99.90
8595;DHT22;4335;48.860;9.198;2024-03-22T09:33:33;18.80;99.90
8595;DHT22;4335;48.860;9.198;2024-03-22T09:35:59;19.30;99.90
8595;DHT22;4335;48.860;9.198;2024-03-22T09:38:31;19.70;99.90
8595;DHT22;4335;48.860;9.198;2024-03-22T09:41:04;19.90;99.90
8595;DHT22;4335;48.860;9.198;2024-03-22T09:43:33;20.20;99.90
8595;DHT22;4335;48.860;9.198;2024-03-22T09:46:01;20.30;99.90
8595;DHT22;4335;48.860;9.198;2024-03-22T09:48:29;20.60;99.90
8595;DHT22;4335;48.860;9.198;2024-03-22T09:50:56;20.80;99.90
8595;DHT22;4335;48.860;9.198;2024-03-22T09:53:25;21.10;99.90
8595;DHT22;4335;48.860;9.198;2024-03-22T09:56:03;21.80;99.90
8595;DHT22;4335;48.860;9.198;2024-03-22T09:58:31;22.80;99.90
8595;DHT22;4335;48.860;9.198;2024-03-22T10:00:57;24.30;99.90
8595;DHT22;4335;48.860;9.198;2024-03-22T10:03:33;25.60;95.10
8595;DHT22;4335;48.860;9.198;2024-03-22T10:06:02;26.60;90.50
8595;DHT22;4335;48.860;9.198;2024-03-22T10:08:30;27.30;84.10
8595;DHT22;4335;48.860;9.198;2024-03-22T10:10:56;26.70;79.40
8595;DHT22;4335;48.860;9.198;2024-03-22T10:13:25;26.40;79.30
8595;DHT22;4335;48.860;9.198;2024-03-22T10:15:51;25.40;80.30
8595;DHT22;4335;48.860;9.198;2024-03-22T10:18:19;24.60;81.90
8595;DHT22;4335;48.860;9.198;2024-03-22T10:20:45;24.00;85.30
8595;DHT22;4335;48.860;9.198;2024-03-22T10:23:30;23.40;86.80
8595;DHT22;4335;48.860;9.198;2024-03-22T10:25:56;23.00;88.80
8595;DHT22;4335;48.860;9.198;2024-03-22T10:28:26;22.90;90.30
8595;DHT22;4335;48.860;9.198;2024-03-22T10:30:55;22.60;90.30
8595;DHT22;4335;48.860;9.198;2024-03-22T10:33:27;23.40;90.00
8595;DHT22;4335;48.860;9.198;2024-03-22T10:35:54;24.10;88.70
8595;DHT22;4335;48.860;9.198;2024-03-22T10:38:26;24.30;87.20
8595;DHT22;4335;48.860;9.198;2024-03-22T10:40:56;24.30;85.60
8595;DHT22;4335;48.860;9.198;2024-03-22T10:43:29;24.60;82.50
8595;DHT22;4335;48.860;9.198;2024-03-22T10:45:58;25.40;82.80
8595;DHT22;4335;48.860;9.198;2024-03-22T10:48:32;26.00;80.20
8595;DHT22;4335;48.860;9.198;2024-03-22T10:51:04;26.60;78.10
8595;DHT22;4335;48.860;9.198;2024-03-22T10:53:33;27.40;77.10
8595;DHT22;4335;48.860;9.198;2024-03-22T10:56:01;27.90;74.30
8595;DHT22;4335;48.860;9.198;2024-03-22T10:58:31;28.40;70.00
8595;DHT22;4335;48.860;9.198;2024-03-22T11:00:57;28.20;68.30
8595;DHT22;4335;48.860;9.198;2024-03-22T11:03:25;28.10;67.10
8595;DHT22;4335;48.860;9.198;2024-03-22T11:05:54;27.70;66.80
8595;DHT22;4335;48.860;9.198;2024-03-22T11:08:25;27.40;67.80
8595;DHT22;4335;48.860;9.198;2024-03-22T11:10:52;27.00;68.60
8595;DHT22;4335;48.860;9.198;2024-03-22T11:13:20;26.60;69.20
8595;DHT22;4335;48.860;9.198;2024-03-22T11:15:51;25.80;70.80
8595;DHT22;4335;48.860;9.198;2024-03-22T11:18:30;24.60;72.40
8595;DHT22;4335;48.860;9.198;2024-03-22T11:20:57;23.30;73.70
8595;DHT22;4335;48.860;9.198;2024-03-22T11:23:30;23.00;76.40
8595;DHT22;4335;48.860;9.198;2024-03-22T11:25:57;22.70;79.30
8595;DHT22;4335;48.860;9.198;2024-03-22T11:28:24;22.30;80.40
8595;DHT22;4335;48.860;9.198;2024-03-22T11:31:01;22.10;81.60
8595;DHT22;4335;48.860;9.198;2024-03-22T11:33:30;21.80;83.90
8595;DHT22;4335;48.860;9.198;2024-03-22T11:35:58;21.70;83.70
8595;DHT22;4335;48.860;9.198;2024-03-22T11:38:29;21.40;83.50
8595;DHT22;4335;48.860;9.198;2024-03-22T11:40:57;20.80;85.00
8595;DHT22;4335;48.860;9.198;2024-03-22T11:43:29;20.30;87.20
8595;DHT22;4335;48.860;9.198;2024-03-22T11:45:55;20.40;88.00
8595;DHT22;4335;48.860;9.198;2024-03-22T11:48:24;20.60;88.60
8595;DHT22;4335;48.860;9.198;2024-03-22T11:50:54;20.60;85.80
8595;DHT22;4335;48.860;9.198;2024-03-22T11:53:24;20.60;85.20
8595;DHT22;4335;48.860;9.198;2024-03-22T11:55:50;20.70;85.10
8595;DHT22;4335;48.860;9.198;2024-03-22T11:58:18;20.60;85.60
8595;DHT22;4335;48.860;9.198;2024-03-22T12:00:51;20.70;86.10
8595;DHT22;4335;48.860;9.198;2024-03-22T12:03:20;20.80;85.90
8595;DHT22;4335;48.860;9.198;2024-03-22T12:05:54;20.80;85.20
8595;DHT22;4335;48.860;9.198;2024-03-22T12:08:22;20.60;84.10
8595;DHT22;4335;48.860;9.198;2024-03-22T12:10:54;20.50;83.20
8595;DHT22;4335;48.860;9.198;2024-03-22T12:13:22;20.50;84.20
8595;DHT22;4335;48.860;9.198;2024-03-22T12:15:48;20.60;85.00
8595;DHT22;4335;48.860;9.198;2024-03-22T12:18:15;20.60;85.60
8595;DHT22;4335;48.860;9.198;2024-03-22T12:20:41;20.50;86.00
8595;DHT22;4335;48.860;9.198;2024-03-22T12:23:13;20.40;86.60
8595;DHT22;4335;48.860;9.198;2024-03-22T12:25:40;20.30;86.50
8595;DHT22;4335;48.860;9.198;2024-03-22T12:28:10;20.10;87.50
8595;DHT22;4335;48.860;9.198;2024-03-22T12:30:36;20.20;89.10
8595;DHT22;4335;48.860;9.198;2024-03-22T12:33:07;20.10;90.10
8595;DHT22;4335;48.860;9.198;2024-03-22T12:35:38;20.10;90.20
8595;DHT22;4335;48.860;9.198;2024-03-22T12:38:13;20.10;90.30
8595;DHT22;4335;48.860;9.198;2024-03-22T12:40:46;20.10;89.50
8595;DHT22;4335;48.860;9.198;2024-03-22T12:43:17;20.00;90.10
8595;DHT22;4335;48.860;9.198;2024-03-22T12:45:45;20.10;90.10
8595;DHT22;4335;48.860;9.198;2024-03-22T12:48:13;19.80;89.70
8595;DHT22;4335;48.860;9.198;2024-03-22T12:50:42;19.90;90.40
8595;DHT22;4335;48.860;9.198;2024-03-22T12:53:10;19.90;90.50
8595;DHT22;4335;48.860;9.198;2024-03-22T12:55:40;20.10;90.60
8595;DHT22;4335;48.860;9.198;2024-03-22T12:58:08;20.30;90.40
8595;DHT22;4335;48.860;9.198;2024-03-22T13:00:40;20.30;88.90
8595;DHT22;4335;48.860;9.198;2024-03-22T13:03:10;20.50;89.10
8595;DHT22;4335;48.860;9.198;2024-03-22T13:05:37;20.40;87.50
8595;DHT22;4335;48.860;9.198;2024-03-22T13:08:11;20.60;88.10
8595;DHT22;4335;48.860;9.198;2024-03-22T13:10:44;20.60;88.20
8595;DHT22;4335;48.860;9.198;2024-03-22T13:13:12;20.60;89.80
8595;DHT22;4335;48.860;9.198;2024-03-22T13:15:43;20.60;90.20
8595;DHT22;4335;48.860;9.198;2024-03-22T13:18:15;20.40;90.20
8595;DHT22;4335;48.860;9.198;2024-03-22T13:20:42;20.30;90.40
8595;DHT22;4335;48.860;9.198;2024-03-22T13:23:09;20.10;90.60
8595;DHT22;4335;48.860;9.198;2024-03-22T13:25:37;19.90;91.10
8595;DHT22;4335;48.860;9.198;2024-03-22T13:28:06;19.90;91.40
8595;DHT22;4335;48.860;9.198;2024-03-22T13:30:35;20.00;91.60
8595;DHT22;4335;48.860;9.198;2024-03-22T13:33:03;20.00;91.60
8595;DHT22;4335;48.860;9.198;2024-03-22T13:35:36;19.70;91.80
8595;DHT22;4335;48.860;9.198;2024-03-22T13:38:07;19.80;92.20
8595;DHT22;4335;48.860;9.198;2024-03-22T13:40:38;19.50;92.50
8595;DHT22;4335;48.860;9.198;2024-03-22T13:43:08;19.60;92.40
8595;DHT22;4335;48.860;9.198;2024-03-22T13:45:40;19.50;92.20
8595;DHT22;4335;48.860;9.198;2024-03-22T13:48:11;19.50;92.50
8595;DHT22;4335;48.860;9.198;2024-03-22T13:50:37;19.40;92.90
8595;DHT22;4335;48.860;9.198;2024-03-22T13:53:05;19.50;92.90
8595;DHT22;4335;48.860;9.198;2024-03-22T13:55:31;19.40;92.20
8595;DHT22;4335;48.860;9.198;2024-03-22T13:57:59;19.40;92.50
8595;DHT22;4335;48.860;9.198;2024-03-22T14:00:29;19.60;92.00
8595;DHT22;4335;48.860;9.198;2024-03-22T14:02:57;19.50;92.10
8595;DHT22;4335;48.860;9.198;2024-03-22T14:05:26;19.50;92.70
8595;DHT22;4335;48.860;9.198;2024-03-22T14:07:57;19.40;93.00
8595;DHT22;4335;48.860;9.198;2024-03-22T14:10:24;19.20;93.60
8595;DHT22;4335;48.860;9.198;2024-03-22T14:12:53;19.00;93.90
8595;DHT22;4335;48.860;9.198;2024-03-22T14:15:26;19.00;94.50
8595;DHT22;4335;48.860;9.198;2024-03-22T14:17:58;18.70;94.00
8595;DHT22;4335;48.860;9.198;2024-03-22T14:20:28;18.70;94.00
8595;DHT22;4335;48.860;9.198;2024-03-22T14:22:55;18.70;93.80
8595;DHT22;4335;48.860;9.198;2024-03-22T14:25:21;18.60;92.80
8595;DHT22;4335;48.860;9.198;2024-03-22T14:27:52;18.60;91.90
8595;DHT22;4335;48.860;9.198;2024-03-22T14:30:22;18.60;90.00
8595;DHT22;4335;48.860;9.198;2024-03-22T14:32:55;18.50;87.20
8595;DHT22;4335;48.860;9.198;2024-03-22T14:35:29;18.50;86.70
8595;DHT22;4335;48.860;9.198;2024-03-22T14:37:57;18.40;86.60
8595;DHT22;4335;48.860;9.198;2024-03-22T14:40:25;18.40;86.70
8595;DHT22;4335;48.860;9.198;2024-03-22T14:42:53;18.40;86.60
8595;DHT22;4335;48.860;9.198;2024-03-22T14:45:22;18.50;87.50
8595;DHT22;4335;48.860;9.198;2024-03-22T14:47:59;18.40;86.70
8595;DHT22;4335;48.860;9.198;2024-03-22T14:50:30;18.40;87.40
8595;DHT22;4335;48.860;9.198;2024-03-22T14:53:01;18.40;86.10
8595;DHT22;4335;48.860;9.198;2024-03-22T14:55:27;18.40;86.90
8595;DHT22;4335;48.860;9.198;2024-03-22T14:57:55;18.40;87.00
8595;DHT22;4335;48.860;9.198;2024-03-22T15:00:21;18.30;86.20
8595;DHT22;4335;48.860;9.198;2024-03-22T15:02:54;18.20;86.90
8595;DHT22;4335;48.860;9.198;2024-03-22T15:05:21;18.20;86.00
8595;DHT22;4335;48.860;9.198;2024-03-22T15:07:52;18.10;86.20
8595;DHT22;4335;48.860;9.198;2024-03-22T15:10:21;18.10;86.70
8595;DHT22;4335;48.860;9.198;2024-03-22T15:12:49;18.00;87.70
8595;DHT22;4335;48.860;9.198;2024-03-22T15:15:18;17.90;88.60
8595;DHT22;4335;48.860;9.198;2024-03-22T15:17:49;17.90;88.10
8595;DHT22;4335;48.860;9.198;2024-03-22T15:20:16;17.80;88.90
8595;DHT22;4335;48.860;9.198;2024-03-22T15:22:46;17.70;89.60
8595;DHT22;4335;48.860;9.198;2024-03-22T15:25:14;17.80;90.40
8595;DHT22;4335;48.860;9.198;2024-03-22T15:27:43;17.60;90.80
8595;DHT22;4335;48.860;9.198;2024-03-22T15:30:10;17.60;91.30
8595;DHT22;4335;48.860;9.198;2024-03-22T15:32:39;17.60;91.80
8595;DHT22;4335;48.860;9.198;2024-03-22T15:35:06;17.60;92.40
8595;DHT22;4335;48.860;9.198;2024-03-22T15:37:38;17.60;92.60
8595;DHT22;4335;48.860;9.198;2024-03-22T15:40:06;17.60;93.00
8595;DHT22;4335;48.860;9.198;2024-03-22T15:42:36;17.50;93.10
8595;DHT22;4335;48.860;9.198;2024-03-22T15:45:03;17.50;93.40
8595;DHT22;4335;48.860;9.198;2024-03-22T15:47:31;17.60;93.90
8595;DHT22;4335;48.860;9.198;2024-03-22T15:49:58;17.60;94.20
8595;DHT22;4335;48.860;9.198;2024-03-22T15:52:26;17.60;94.40
8595;DHT22;4335;48.860;9.198;2024-03-22T15:54:53;17.70;94.40
8595;DHT22;4335;48.860;9.198;2024-03-22T15:57:21;17.60;94.70
8595;DHT22;4335;48.860;9.198;2024-03-22T15:59:49;17.50;94.40
8595;DHT22;4335;48.860;9.198;2024-03-22T16:02:16;17.50;94.60
8595;DHT22;4335;48.860;9.198;2024-03-22T16:04:43;17.40;95.00
8595;DHT22;4335;48.860;9.198;2024-03-22T16:07:11;17.50;95.40
8595;DHT22;4335;48.860;9.198;2024-03-22T16:09:37;17.40;95.70
8595;DHT22;4335;48.860;9.198;2024-03-22T16:12:05;17.40;95.60
8595;DHT22;4335;48.860;9.198;2024-03-22T16:14:32;17.40;95.90
8595;DHT22;4335;48.860;9.198;2024-03-22T16:17:01;17.30;96.00
8595;DHT22;4335;48.860;9.198;2024-03-22T16:19:31;17.30;96.30